sensor_id;sensor_type;location;lat;lon;timestamp;pressure;altitude;pressure_sealevel;temperature;humidity
60719;BME280;46567;51.660;5.824;2023-07-24T00:02:44;128270.0;;;190.6;100.0
60719;BME280;46567;51.660;5.824;2023-07-24T00:07:44;128250.0;;;190.6;100.0
60719;BME280;46567;51.660;5.824;2023-07-24T00:12:44;128250.0;;;190.6;100.0
60719;BME280;46567;51.660;5.824;2023-07-24T00:17:44;128250.0;;;190.6;100.0
60719;BME280;46567;51.660;5.824;2023-07-24T00:27:44;128240.0;;;190.6;100.0
60719;BME280;46567;51.660;5.824;2023-07-24T00:32:44;128240.0;;;190.6;100.0
60719;BME280;46567;51.660;5.824;2023-07-24T00:37:44;128220.0;;;190.6;100.0
60719;BME280;46567;51.660;5.824;2023-07-24T00:42:46;128220.0;;;190.6;100.0
60719;BME280;46567;51.660;5.824;2023-07-24T00:47:44;128220.0;;;190.6;100.0
60719;BME280;46567;51.660;5.824;2023-07-24T00:52:44;128220.0;;;190.6;100.0
60719;BME280;46567;51.660;5.824;2023-07-24T00:57:44;128210.0;;;190.6;100.0
60719;BME280;46567;51.660;5.824;2023-07-24T01:02:44;128210.0;;;190.6;100.0
60719;BME280;46567;51.660;5.824;2023-07-24T01:07:44;128200.0;;;190.6;100.0
60719;BME280;46567;51.660;5.824;2023-07-24T01:12:53;128190.0;;;190.6;100.0
60719;BME280;46567;51.660;5.824;2023-07-24T01:17:46;128200.0;;;190.6;100.0
60719;BME280;46567;51.660;5.824;2023-07-24T01:23:29;128200.0;;;190.6;100.0
60719;BME280;46567;51.660;5.824;2023-07-24T01:27:45;128190.0;;;190.6;100.0
60719;BME280;46567;51.660;5.824;2023-07-24T01:32:44;128170.0;;;190.6;100.0
60719;BME280;46567;51.660;5.824;2023-07-24T01:37:46;128170.0;;;190.6;100.0
60719;BME280;46567;51.660;5.824;2023-07-24T01:42:44;128150.0;;;190.6;100.0
60719;BME280;46567;51.660;5.824;2023-07-24T01:52:44;128130.0;;;190.6;100.0
60719;BME280;46567;51.660;5.824;2023-07-24T01:57:44;128130.0;;;190.6;100.0
60719;BME280;46567;51.660;5.824;2023-07-24T02:02:44;128130.0;;;190.6;100.0
60719;BME280;46567;51.660;5.824;2023-07-24T02:07:44;128120.0;;;190.6;100.0
60719;BME280;46567;51.660;5.824;2023-07-24T02:12:44;128110.0;;;190.6;100.0
60719;BME280;46567;51.660;5.824;2023-07-24T02:17:44;128120.0;;;190.6;100.0
60719;BME280;46567;51.660;5.824;2023-07-24T02:27:44;128100.0;;;190.6;100.0
60719;BME280;46567;51.660;5.824;2023-07-24T02:32:44;128080.0;;;190.6;100.0
60719;BME280;46567;51.660;5.824;2023-07-24T02:37:44;128090.0;;;190.6;100.0
60719;BME280;46567;51.660;5.824;2023-07-24T02:42:44;128070.0;;;190.6;100.0
60719;BME280;46567;51.660;5.824;2023-07-24T02:47:44;128080.0;;;190.6;100.0
60719;BME280;46567;51.660;5.824;2023-07-24T02:52:44;128080.0;;;190.6;100.0
60719;BME280;46567;51.660;5.824;2023-07-24T02:57:44;128090.0;;;190.6;100.0
60719;BME280;46567;51.660;5.824;2023-07-24T03:02:44;128070.0;;;190.6;100.0
60719;BME280;46567;51.660;5.824;2023-07-24T03:07:44;128060.0;;;190.6;100.0
60719;BME280;46567;51.660;5.824;2023-07-24T03:12:44;128050.0;;;190.6;100.0
60719;BME280;46567;51.660;5.824;2023-07-24T03:17:44;128060.0;;;190.6;100.0
60719;BME280;46567;51.660;5.824;2023-07-24T03:22:44;128080.0;;;190.6;100.0
60719;BME280;46567;51.660;5.824;2023-07-24T03:27:44;128080.0;;;190.6;100.0
60719;BME280;46567;51.660;5.824;2023-07-24T03:32:44;128070.0;;;190.6;100.0
60719;BME280;46567;51.660;5.824;2023-07-24T03:37:44;128070.0;;;190.6;100.0
60719;BME280;46567;51.660;5.824;2023-07-24T03:42:44;128060.0;;;190.6;100.0
60719;BME280;46567;51.660;5.824;2023-07-24T03:47:44;128080.0;;;190.6;100.0
60719;BME280;46567;51.660;5.824;2023-07-24T03:52:44;128080.0;;;190.6;100.0
60719;BME280;46567;51.660;5.824;2023-07-24T03:57:44;128080.0;;;190.6;100.0
60719;BME280;46567;51.660;5.824;2023-07-24T04:02:44;128100.0;;;190.6;100.0
60719;BME280;46567;51.660;5.824;2023-07-24T04:07:44;128100.0;;;190.6;100.0
60719;BME280;46567;51.660;5.824;2023-07-24T04:12:44;128110.0;;;190.6;100.0
60719;BME280;46567;51.660;5.824;2023-07-24T04:17:44;128140.0;;;190.6;100.0
60719;BME280;46567;51.660;5.824;2023-07-24T04:22:44;128180.0;;;190.6;100.0
60719;BME280;46567;51.660;5.824;2023-07-24T04:32:44;128230.0;;;190.6;100.0
60719;BME280;46567;51.660;5.824;2023-07-24T04:37:44;128260.0;;;190.6;100.0
60719;BME280;46567;51.660;5.824;2023-07-24T04:42:44;128260.0;;;190.6;100.0
60719;BME280;46567;51.660;5.824;2023-07-24T04:47:44;128260.0;;;190.6;100.0
60719;BME280;46567;51.660;5.824;2023-07-24T04:52:44;128260.0;;;190.6;100.0
60719;BME280;46567;51.660;5.824;2023-07-24T04:57:44;128270.0;;;190.6;100.0
60719;BME280;46567;51.660;5.824;2023-07-24T05:02:44;128300.0;;;190.6;100.0
60719;BME280;46567;51.660;5.824;2023-07-24T05:07:45;128310.0;;;190.6;100.0
60719;BME280;46567;51.660;5.824;2023-07-24T05:12:44;128290.0;;;190.6;100.0
60719;BME280;46567;51.660;5.824;2023-07-24T05:17:44;128300.0;;;190.6;100.0
60719;BME280;46567;51.660;5.824;2023-07-24T05:22:44;128310.0;;;190.6;100.0
60719;BME280;46567;51.660;5.824;2023-07-24T05:27:44;128330.0;;;190.6;100.0
60719;BME280;46567;51.660;5.824;2023-07-24T05:32:44;128320.0;;;190.6;100.0
60719;BME280;46567;51.660;5.824;2023-07-24T05:37:44;128330.0;;;190.6;100.0
60719;BME280;46567;51.660;5.824;2023-07-24T05:42:45;128330.0;;;190.6;100.0
60719;BME280;46567;51.660;5.824;2023-07-24T05:47:44;128320.0;;;190.6;100.0
60719;BME280;46567;51.660;5.824;2023-07-24T05:52:44;128330.0;;;190.6;100.0
60719;BME280;46567;51.660;5.824;2023-07-24T05:57:44;128300.0;;;190.6;100.0
60719;BME280;46567;51.660;5.824;2023-07-24T06:02:44;128300.0;;;190.6;100.0
60719;BME280;46567;51.660;5.824;2023-07-24T06:07:44;128290.0;;;190.6;100.0
60719;BME280;46567;51.660;5.824;2023-07-24T06:17:44;128270.0;;;190.6;100.0
60719;BME280;46567;51.660;5.824;2023-07-24T06:22:44;128260.0;;;190.6;100.0
60719;BME280;46567;51.660;5.824;2023-07-24T06:27:44;128250.0;;;190.6;100.0
60719;BME280;46567;51.660;5.824;2023-07-24T06:37:44;128240.0;;;190.6;100.0
60719;BME280;46567;51.660;5.824;2023-07-24T06:42:45;128220.0;;;190.6;100.0
60719;BME280;46567;51.660;5.824;2023-07-24T06:47:44;128220.0;;;190.6;100.0
60719;BME280;46567;51.660;5.824;2023-07-24T06:52:44;128200.0;;;190.6;100.0
60719;BME280;46567;51.660;5.824;2023-07-24T06:57:44;128190.0;;;190.6;100.0
60719;BME280;46567;51.660;5.824;2023-07-24T07:02:44;128160.0;;;190.6;100.0
60719;BME280;46567;51.660;5.824;2023-07-24T07:07:44;128130.0;;;190.6;100.0
60719;BME280;46567;51.660;5.824;2023-07-24T07:12:44;128100.0;;;190.6;100.0
60719;BME280;46567;51.660;5.824;2023-07-24T07:17:44;128090.0;;;190.6;100.0
60719;BME280;46567;51.660;5.824;2023-07-24T07:22:44;128100.0;;;190.6;100.0
60719;BME280;46567;51.660;5.824;2023-07-24T07:27:44;128130.0;;;190.6;100.0
60719;BME280;46567;51.660;5.824;2023-07-24T07:32:44;128130.0;;;190.6;100.0
60719;BME280;46567;51.660;5.824;2023-07-24T07:37:44;128110.0;;;190.6;100.0
60719;BME280;46567;51.660;5.824;2023-07-24T07:42:44;128120.0;;;190.6;100.0
60719;BME280;46567;51.660;5.824;2023-07-24T07:47:44;128100.0;;;190.6;100.0
60719;BME280;46567;51.660;5.824;2023-07-24T07:52:44;128090.0;;;190.6;100.0
60719;BME280;46567;51.660;5.824;2023-07-24T07:57:44;128090.0;;;190.6;100.0
60719;BME280;46567;51.660;5.824;2023-07-24T08:02:44;128090.0;;;190.6;100.0
60719;BME280;46567;51.660;5.824;2023-07-24T08:07:44;128090.0;;;190.6;100.0
60719;BME280;46567;51.660;5.824;2023-07-24T08:12:44;128080.0;;;190.6;100.0
60719;BME280;46567;51.660;5.824;2023-07-24T08:17:44;128080.0;;;190.6;100.0
60719;BME280;46567;51.660;5.824;2023-07-24T08:22:44;128070.0;;;190.6;100.0
60719;BME280;46567;51.660;5.824;2023-07-24T08:27:44;128000.0;;;190.6;100.0
60719;BME280;46567;51.660;5.824;2023-07-24T08:32:44;127950.0;;;190.6;100.0
60719;BME280;46567;51.660;5.824;2023-07-24T08:37:44;127920.0;;;190.6;100.0
60719;BME280;46567;51.660;5.824;2023-07-24T08:42:47;127890.0;;;190.6;100.0
60719;BME280;46567;51.660;5.824;2023-07-24T08:47:45;127870.0;;;190.6;100.0
60719;BME280;46567;51.660;5.824;2023-07-24T08:52:44;127840.0;;;190.6;100.0
60719;BME280;46567;51.660;5.824;2023-07-24T08:57:44;127790.0;;;190.6;100.0
60719;BME280;46567;51.660;5.824;2023-07-24T09:02:44;127780.0;;;190.6;100.0
60719;BME280;46567;51.660;5.824;2023-07-24T09:07:45;127790.0;;;190.6;100.0
60719;BME280;46567;51.660;5.824;2023-07-24T09:12:44;127770.0;;;190.6;100.0
60719;BME280;46567;51.660;5.824;2023-07-24T09:17:48;127770.0;;;190.6;100.0
60719;BME280;46567;51.660;5.824;2023-07-24T09:22:48;127770.0;;;190.6;100.0
60719;BME280;46567;51.660;5.824;2023-07-24T09:32:51;127690.0;;;190.6;100.0
60719;BME280;46567;51.660;5.824;2023-07-24T09:37:45;127610.0;;;190.6;100.0
60719;BME280;46567;51.660;5.824;2023-07-24T09:42:44;127530.0;;;190.6;99.0
60719;BME280;46567;51.660;5.824;2023-07-24T09:47:45;127440.0;;;190.6;99.0
60719;BME280;46567;51.660;5.824;2023-07-24T09:52:47;127380.0;;;190.6;95.5
60719;BME280;46567;51.660;5.824;2023-07-24T09:57:45;127370.0;;;190.6;93.5
60719;BME280;46567;51.660;5.824;2023-07-24T10:02:44;127380.0;;;190.6;94.0
60719;BME280;46567;51.660;5.824;2023-07-24T10:07:45;127410.0;;;190.6;93.5
60719;BME280;46567;51.660;5.824;2023-07-24T10:12:44;127460.0;;;190.6;93.0
60719;BME280;46567;51.660;5.824;2023-07-24T10:17:44;127470.0;;;190.6;94.0
60719;BME280;46567;51.660;5.824;2023-07-24T10:22:44;127480.0;;;190.6;95.0
60719;BME280;46567;51.660;5.824;2023-07-24T10:27:45;127500.0;;;190.6;93.5
60719;BME280;46567;51.660;5.824;2023-07-24T10:32:45;127560.0;;;190.6;93.0
60719;BME280;46567;51.660;5.824;2023-07-24T10:37:44;127620.0;;;190.6;91.5
60719;BME280;46567;51.660;5.824;2023-07-24T10:42:44;127670.0;;;190.6;93.0
60719;BME280;46567;51.660;5.824;2023-07-24T10:47:44;127710.0;;;190.6;93.0
60719;BME280;46567;51.660;5.824;2023-07-24T10:52:44;127740.0;;;190.6;93.5
60719;BME280;46567;51.660;5.824;2023-07-24T10:57:44;127770.0;;;190.6;94.5
60719;BME280;46567;51.660;5.824;2023-07-24T11:02:44;127770.0;;;190.6;95.5
60719;BME280;46567;51.660;5.824;2023-07-24T11:07:44;127770.0;;;190.6;95.5
60719;BME280;46567;51.660;5.824;2023-07-24T11:12:45;127750.0;;;190.6;96.0
60719;BME280;46567;51.660;5.824;2023-07-24T11:17:44;127700.0;;;190.6;96.0
60719;BME280;46567;51.660;5.824;2023-07-24T11:22:44;127650.0;;;190.6;95.0
60719;BME280;46567;51.660;5.824;2023-07-24T11:27:44;127590.0;;;190.6;94.5
60719;BME280;46567;51.660;5.824;2023-07-24T11:32:45;127550.0;;;190.6;94.0
60719;BME280;46567;51.660;5.824;2023-07-24T11:37:44;127520.0;;;190.6;94.0
60719;BME280;46567;51.660;5.824;2023-07-24T11:42:46;127500.0;;;190.6;93.5
60719;BME280;46567;51.660;5.824;2023-07-24T11:47:45;127440.0;;;190.6;93.0
60719;BME280;46567;51.660;5.824;2023-07-24T11:52:46;127410.0;;;190.6;91.5
60719;BME280;46567;51.660;5.824;2023-07-24T11:57:54;127410.0;;;190.6;90.0
60719;BME280;46567;51.660;5.824;2023-07-24T12:02:45;127400.0;;;190.6;89.0
60719;BME280;46567;51.660;5.824;2023-07-24T12:07:44;127400.0;;;190.6;88.5
60719;BME280;46567;51.660;5.824;2023-07-24T12:12:46;127370.0;;;190.6;88.5
60719;BME280;46567;51.660;5.824;2023-07-24T12:17:44;127340.0;;;190.6;87.5
60719;BME280;46567;51.660;5.824;2023-07-24T12:22:44;127350.0;;;190.6;86.5
60719;BME280;46567;51.660;5.824;2023-07-24T12:27:44;127330.0;;;190.6;86.0
60719;BME280;46567;51.660;5.824;2023-07-24T12:32:45;127320.0;;;190.6;86.0
60719;BME280;46567;51.660;5.824;2023-07-24T12:37:45;127300.0;;;190.6;85.0
60719;BME280;46567;51.660;5.824;2023-07-24T12:42:44;127220.0;;;190.6;85.0
60719;BME280;46567;51.660;5.824;2023-07-24T12:47:44;127190.0;;;190.6;83.5
60719;BME280;46567;51.660;5.824;2023-07-24T12:52:44;127160.0;;;190.6;84.0
60719;BME280;46567;51.660;5.824;2023-07-24T12:57:44;127120.0;;;190.6;83.0
60719;BME280;46567;51.660;5.824;2023-07-24T13:02:44;127110.0;;;190.6;80.5
60719;BME280;46567;51.660;5.824;2023-07-24T13:07:44;127100.0;;;190.6;81.5
60719;BME280;46567;51.660;5.824;2023-07-24T13:12:44;127070.0;;;190.6;80.5
60719;BME280;46567;51.660;5.824;2023-07-24T13:17:44;127090.0;;;190.6;80.0
60719;BME280;46567;51.660;5.824;2023-07-24T13:22:44;127120.0;;;190.6;80.5
60719;BME280;46567;51.660;5.824;2023-07-24T13:27:44;127140.0;;;190.6;83.0
60719;BME280;46567;51.660;5.824;2023-07-24T13:32:44;127110.0;;;190.6;83.5
60719;BME280;46567;51.660;5.824;2023-07-24T13:37:44;127090.0;;;190.6;82.5
60719;BME280;46567;51.660;5.824;2023-07-24T13:42:44;127060.0;;;190.6;82.0
60719;BME280;46567;51.660;5.824;2023-07-24T13:47:44;127060.0;;;190.6;80.5
60719;BME280;46567;51.660;5.824;2023-07-24T13:52:44;127070.0;;;190.6;80.0
60719;BME280;46567;51.660;5.824;2023-07-24T13:57:45;127100.0;;;190.6;80.0
60719;BME280;46567;51.660;5.824;2023-07-24T14:02:44;127160.0;;;190.6;80.0
60719;BME280;46567;51.660;5.824;2023-07-24T14:07:44;127210.0;;;190.6;80.5
60719;BME280;46567;51.660;5.824;2023-07-24T14:12:44;127300.0;;;190.6;82.0
60719;BME280;46567;51.660;5.824;2023-07-24T14:17:44;127380.0;;;190.6;83.0
60719;BME280;46567;51.660;5.824;2023-07-24T14:22:44;127460.0;;;190.6;83.0
60719;BME280;46567;51.660;5.824;2023-07-24T14:27:44;127560.0;;;190.6;84.0
60719;BME280;46567;51.660;5.824;2023-07-24T14:32:44;127670.0;;;190.6;86.5
60719;BME280;46567;51.660;5.824;2023-07-24T14:37:44;127780.0;;;190.6;88.0
60719;BME280;46567;51.660;5.824;2023-07-24T14:42:44;127860.0;;;190.6;90.0
60719;BME280;46567;51.660;5.824;2023-07-24T14:47:44;127890.0;;;190.6;90.5
60719;BME280;46567;51.660;5.824;2023-07-24T14:52:44;127900.0;;;190.6;92.5
60719;BME280;46567;51.660;5.824;2023-07-24T14:57:45;127850.0;;;190.6;95.5
60719;BME280;46567;51.660;5.824;2023-07-24T15:02:44;127710.0;;;190.6;95.5
60719;BME280;46567;51.660;5.824;2023-07-24T15:07:44;127590.0;;;190.6;95.0
60719;BME280;46567;51.660;5.824;2023-07-24T15:12:44;127510.0;;;190.6;91.5
60719;BME280;46567;51.660;5.824;2023-07-24T15:17:45;127500.0;;;190.6;91.0
60719;BME280;46567;51.660;5.824;2023-07-24T15:22:44;127450.0;;;190.6;92.0
60719;BME280;46567;51.660;5.824;2023-07-24T15:27:45;127350.0;;;190.6;93.0
60719;BME280;46567;51.660;5.824;2023-07-24T15:32:45;127280.0;;;190.6;91.5
60719;BME280;46567;51.660;5.824;2023-07-24T15:37:45;127260.0;;;190.6;88.5
60719;BME280;46567;51.660;5.824;2023-07-24T15:42:44;127290.0;;;190.6;87.5
60719;BME280;46567;51.660;5.824;2023-07-24T15:47:44;127360.0;;;190.6;87.5
60719;BME280;46567;51.660;5.824;2023-07-24T15:52:45;127430.0;;;190.6;89.0
60719;BME280;46567;51.660;5.824;2023-07-24T15:57:44;127560.0;;;190.6;90.0
60719;BME280;46567;51.660;5.824;2023-07-24T16:02:45;127690.0;;;190.6;91.5
60719;BME280;46567;51.660;5.824;2023-07-24T16:07:45;127790.0;;;190.6;94.0
60719;BME280;46567;51.660;5.824;2023-07-24T16:12:44;127800.0;;;190.6;96.5
60719;BME280;46567;51.660;5.824;2023-07-24T16:17:44;127800.0;;;190.6;97.5
60719;BME280;46567;51.660;5.824;2023-07-24T16:22:45;127790.0;;;190.6;98.5
60719;BME280;46567;51.660;5.824;2023-07-24T16:27:44;127790.0;;;190.6;98.5
60719;BME280;46567;51.660;5.824;2023-07-24T16:32:44;127790.0;;;190.6;98.5
60719;BME280;46567;51.660;5.824;2023-07-24T16:37:44;127790.0;;;190.6;99.0
60719;BME280;46567;51.660;5.824;2023-07-24T16:42:45;127810.0;;;190.6;99.0
60719;BME280;46567;51.660;5.824;2023-07-24T16:47:45;127840.0;;;190.6;100.0
60719;BME280;46567;51.660;5.824;2023-07-24T16:52:45;127830.0;;;190.6;100.0
60719;BME280;46567;51.660;5.824;2023-07-24T16:57:44;127790.0;;;190.6;100.0
60719;BME280;46567;51.660;5.824;2023-07-24T17:02:45;127720.0;;;190.6;100.0
60719;BME280;46567;51.660;5.824;2023-07-24T17:07:44;127690.0;;;190.6;100.0
60719;BME280;46567;51.660;5.824;2023-07-24T17:12:45;127710.0;;;190.6;100.0
60719;BME280;46567;51.660;5.824;2023-07-24T17:17:44;127680.0;;;190.6;100.0
60719;BME280;46567;51.660;5.824;2023-07-24T17:22:45;127680.0;;;190.6;97.5
60719;BME280;46567;51.660;5.824;2023-07-24T17:27:45;127710.0;;;190.6;94.5
60719;BME280;46567;51.660;5.824;2023-07-24T17:32:44;127770.0;;;190.6;93.5
60719;BME280;46567;51.660;5.824;2023-07-24T17:37:45;127820.0;;;190.6;93.0
60719;BME280;46567;51.660;5.824;2023-07-24T17:42:44;127900.0;;;190.6;92.5
60719;BME280;46567;51.660;5.824;2023-07-24T17:47:45;127970.0;;;190.6;93.0
60719;BME280;46567;51.660;5.824;2023-07-24T17:52:44;128040.0;;;190.6;93.5
60719;BME280;46567;51.660;5.824;2023-07-24T17:57:45;128090.0;;;190.6;93.5
60719;BME280;46567;51.660;5.824;2023-07-24T18:02:45;128160.0;;;190.6;94.5
60719;BME280;46567;51.660;5.824;2023-07-24T18:07:45;128210.0;;;190.6;94.5
60719;BME280;46567;51.660;5.824;2023-07-24T18:12:46;128260.0;;;190.6;95.0
60719;BME280;46567;51.660;5.824;2023-07-24T18:17:45;128330.0;;;190.6;96.0
60719;BME280;46567;51.660;5.824;2023-07-24T18:22:44;128330.0;;;190.6;95.5
60719;BME280;46567;51.660;5.824;2023-07-24T18:27:45;128390.0;;;190.6;95.0
60719;BME280;46567;51.660;5.824;2023-07-24T18:32:44;128450.0;;;190.6;95.0
60719;BME280;46567;51.660;5.824;2023-07-24T18:37:45;128480.0;;;190.6;95.0
60719;BME280;46567;51.660;5.824;2023-07-24T18:42:44;128520.0;;;190.6;95.5
60719;BME280;46567;51.660;5.824;2023-07-24T18:47:45;128540.0;;;190.6;96.0
60719;BME280;46567;51.660;5.824;2023-07-24T18:52:45;128560.0;;;190.6;96.5
60719;BME280;46567;51.660;5.824;2023-07-24T18:57:45;128590.0;;;190.6;96.5
60719;BME280;46567;51.660;5.824;2023-07-24T19:02:45;128620.0;;;190.6;97.0
60719;BME280;46567;51.660;5.824;2023-07-24T19:07:45;128660.0;;;190.6;97.0
60719;BME280;46567;51.660;5.824;2023-07-24T19:12:45;128690.0;;;190.6;97.0
60719;BME280;46567;51.660;5.824;2023-07-24T19:17:45;128720.0;;;190.6;97.5
60719;BME280;46567;51.660;5.824;2023-07-24T19:22:45;128740.0;;;190.6;97.5
60719;BME280;46567;51.660;5.824;2023-07-24T19:27:45;128770.0;;;190.6;97.5
60719;BME280;46567;51.660;5.824;2023-07-24T19:32:45;128800.0;;;190.6;97.5
60719;BME280;46567;51.660;5.824;2023-07-24T19:37:45;128820.0;;;190.6;97.5
60719;BME280;46567;51.660;5.824;2023-07-24T19:42:45;128840.0;;;190.6;97.5
60719;BME280;46567;51.660;5.824;2023-07-24T19:47:45;128860.0;;;190.6;98.0
60719;BME280;46567;51.660;5.824;2023-07-24T19:52:45;128860.0;;;190.6;99.0
60719;BME280;46567;51.660;5.824;2023-07-24T19:57:45;128860.0;;;190.6;99.0
60719;BME280;46567;51.660;5.824;2023-07-24T20:02:45;128860.0;;;190.6;99.5
60719;BME280;46567;51.660;5.824;2023-07-24T20:07:45;128850.0;;;190.6;99.5
60719;BME280;46567;51.660;5.824;2023-07-24T20:12:45;128870.0;;;190.6;99.5
60719;BME280;46567;51.660;5.824;2023-07-24T20:17:45;128870.0;;;190.6;99.5
60719;BME280;46567;51.660;5.824;2023-07-24T20:22:45;128870.0;;;190.6;99.5
60719;BME280;46567;51.660;5.824;2023-07-24T20:27:45;128890.0;;;190.6;99.0
60719;BME280;46567;51.660;5.824;2023-07-24T20:32:45;128890.0;;;190.6;99.0
60719;BME280;46567;51.660;5.824;2023-07-24T20:37:45;128900.0;;;190.6;99.5
60719;BME280;46567;51.660;5.824;2023-07-24T20:42:45;128890.0;;;190.6;100.0
60719;BME280;46567;51.660;5.824;2023-07-24T20:47:45;128890.0;;;190.6;100.0
60719;BME280;46567;51.660;5.824;2023-07-24T20:52:45;128890.0;;;190.6;100.0
60719;BME280;46567;51.660;5.824;2023-07-24T20:57:45;128900.0;;;190.6;100.0
60719;BME280;46567;51.660;5.824;2023-07-24T21:07:45;128910.0;;;190.6;100.0
60719;BME280;46567;51.660;5.824;2023-07-24T21:12:45;128920.0;;;190.6;100.0
60719;BME280;46567;51.660;5.824;2023-07-24T21:17:45;128930.0;;;190.6;99.5
60719;BME280;46567;51.660;5.824;2023-07-24T21:22:45;128950.0;;;190.6;99.5
60719;BME280;46567;51.660;5.824;2023-07-24T21:27:45;128930.0;;;190.6;100.0
60719;BME280;46567;51.660;5.824;2023-07-24T21:32:45;128940.0;;;190.6;100.0
60719;BME280;46567;51.660;5.824;2023-07-24T21:37:45;128960.0;;;190.6;100.0
60719;BME280;46567;51.660;5.824;2023-07-24T21:42:45;128960.0;;;190.6;100.0
60719;BME280;46567;51.660;5.824;2023-07-24T21:47:45;128960.0;;;190.6;100.0
60719;BME280;46567;51.660;5.824;2023-07-24T21:52:45;128960.0;;;190.6;100.0
60719;BME280;46567;51.660;5.824;2023-07-24T21:57:45;128950.0;;;190.6;100.0
60719;BME280;46567;51.660;5.824;2023-07-24T22:02:45;128970.0;;;190.6;100.0
60719;BME280;46567;51.660;5.824;2023-07-24T22:07:45;128970.0;;;190.6;100.0
60719;BME280;46567;51.660;5.824;2023-07-24T22:12:45;128990.0;;;190.6;100.0
60719;BME280;46567;51.660;5.824;2023-07-24T22:17:45;129030.0;;;190.6;100.0
60719;BME280;46567;51.660;5.824;2023-07-24T22:22:45;129040.0;;;190.6;100.0
60719;BME280;46567;51.660;5.824;2023-07-24T22:27:45;129050.0;;;190.6;100.0
60719;BME280;46567;51.660;5.824;2023-07-24T22:32:45;129050.0;;;190.6;100.0
60719;BME280;46567;51.660;5.824;2023-07-24T22:37:45;129070.0;;;190.6;100.0
60719;BME280;46567;51.660;5.824;2023-07-24T22:42:45;129090.0;;;190.6;100.0
60719;BME280;46567;51.660;5.824;2023-07-24T22:47:45;129110.0;;;190.6;100.0
60719;BME280;46567;51.660;5.824;2023-07-24T22:52:45;129170.0;;;190.6;100.0
60719;BME280;46567;51.660;5.824;2023-07-24T22:57:45;129190.0;;;190.6;100.0
60719;BME280;46567;51.660;5.824;2023-07-24T23:02:45;129220.0;;;190.6;100.0
60719;BME280;46567;51.660;5.824;2023-07-24T23:07:45;129250.0;;;190.6;100.0
60719;BME280;46567;51.660;5.824;2023-07-24T23:12:45;129250.0;;;190.6;100.0
60719;BME280;46567;51.660;5.824;2023-07-24T23:17:45;129280.0;;;190.6;100.0
60719;BME280;46567;51.660;5.824;2023-07-24T23:22:45;129300.0;;;190.6;100.0
60719;BME280;46567;51.660;5.824;2023-07-24T23:27:45;129310.0;;;190.6;100.0
60719;BME280;46567;51.660;5.824;2023-07-24T23:32:45;129340.0;;;190.6;100.0
60719;BME280;46567;51.660;5.824;2023-07-24T23:37:45;129360.0;;;190.6;100.0
60719;BME280;46567;51.660;5.824;2023-07-24T23:42:45;129370.0;;;190.6;100.0
60719;BME280;46567;51.660;5.824;2023-07-24T23:47:45;129390.0;;;190.6;100.0
60719;BME280;46567;51.660;5.824;2023-07-24T23:52:45;129420.0;;;190.6;100.0
60719;BME280;46567;51.660;5.824;2023-07-24T23:57:45;129440.0;;;190.6;100.0
